Time;durP1;ratioP1;P1;durP2;ratioP2;P2;SDS_P1;SDS_P2;PMS_P1;PMS_P2;Temp;Humidity;BMP_temperature;BMP_pressure;BME280_temperature;BME280_humidity;BME280_pressure;Samples;Min_cycle;Max_cycle;Signal;HPM_P1;HPM_P2
2023/05/20 00:00:47;;;;;;;1.77;1.67;;;;;;;13.27;64.86;101641.47;4973818;28;20222;-79
2023/05/20 00:03:14;;;;;;;1.87;1.70;;;;;;;13.25;65.13;101630.13;4988554;28;20204;-78
2023/05/20 00:05:40;;;;;;;2.67;1.97;;;;;;;13.24;65.20;101633.66;4987235;28;20230;-79
2023/05/20 00:08:08;;;;;;;2.20;1.97;;;;;;;13.16;64.95;101639.84;4986466;28;20268;-79
2023/05/20 00:10:34;;;;;;;1.93;1.83;;;;;;;13.16;65.21;101634.59;4988492;28;20210;-79
2023/05/20 00:13:01;;;;;;;1.83;1.67;;;;;;;13.10;65.45;101632.91;4987892;28;20214;-79
2023/05/20 00:15:29;;;;;;;2.50;2.03;;;;;;;13.08;65.25;101637.28;4986844;28;20240;-79
2023/05/20 00:17:55;;;;;;;3.17;1.93;;;;;;;13.09;65.29;101625.94;4988390;28;20623;-79
2023/05/20 00:20:22;;;;;;;3.27;1.90;;;;;;;13.07;65.23;101628.56;4988048;28;20235;-79
2023/05/20 00:22:48;;;;;;;2.20;2.00;;;;;;;13.01;65.35;101631.25;4988062;28;20222;-78
2023/05/20 00:25:14;;;;;;;2.17;2.07;;;;;;;12.97;65.51;101628.69;4987243;28;20236;-79
2023/05/20 00:27:41;;;;;;;2.80;2.07;;;;;;;12.96;65.41;101633.03;4988207;28;20640;-79
2023/05/20 00:30:09;;;;;;;2.10;2.00;;;;;;;12.95;65.48;101635.69;4988116;28;20211;-79
2023/05/20 00:32:36;;;;;;;3.83;2.17;;;;;;;12.90;65.27;101641.84;4986924;28;20282;-79
2023/05/20 00:35:03;;;;;;;2.20;2.00;;;;;;;12.93;65.39;101640.09;4986797;28;20234;-79
2023/05/20 00:37:30;;;;;;;1.90;1.80;;;;;;;12.91;65.01;101640.94;4986800;28;20206;-78
2023/05/20 00:39:56;;;;;;;2.10;2.00;;;;;;;12.89;65.75;101641.84;4987707;28;20725;-79
2023/05/20 00:42:24;;;;;;;2.43;1.70;;;;;;;12.80;65.34;101631.44;4987213;28;20220;-79
2023/05/20 00:44:51;;;;;;;3.37;2.10;;;;;;;12.71;66.01;101627.16;4986920;28;20230;-79
2023/05/20 00:47:18;;;;;;;2.03;1.80;;;;;;;12.73;66.35;101624.53;4986923;28;20212;-79
2023/05/20 00:49:46;;;;;;;2.30;2.00;;;;;;;12.73;65.91;101627.16;4987026;28;20216;-78
2023/05/20 00:52:14;;;;;;;2.10;1.93;;;;;;;12.69;65.90;101623.69;4984561;28;20270;-79
2023/05/20 00:54:40;;;;;;;2.07;1.83;;;;;;;12.71;65.54;101619.31;4987589;28;20244;-79
2023/05/20 00:57:09;;;;;;;3.10;1.93;;;;;;;12.73;65.79;101628.03;4987641;28;20205;-79
2023/05/20 00:59:37;;;;;;;2.40;1.70;;;;;;;12.76;65.52;101629.72;4986908;28;20259;-79
2023/05/20 01:02:03;;;;;;;2.77;2.07;;;;;;;12.69;66.33;101628.94;4986942;28;20209;-79
2023/05/20 01:04:30;;;;;;;2.70;1.87;;;;;;;12.65;66.18;101627.22;4987354;28;20208;-78
2023/05/20 01:06:59;;;;;;;1.90;1.80;;;;;;;12.64;66.79;101618.47;4986389;28;20627;-79
2023/05/20 01:09:25;;;;;;;2.03;1.50;;;;;;;12.69;66.11;101618.44;4987849;28;20219;-79
2023/05/20 01:11:56;;;;;;;2.07;1.90;;;;;;;12.66;66.10;101621.94;4986889;28;20209;-79
2023/05/20 01:14:27;;;;;;;2.70;2.50;;;;;;;12.66;65.71;101624.56;4987283;28;20210;-79
2023/05/20 01:16:57;;;;;;;2.27;2.07;;;;;;;12.65;65.84;101632.47;4986506;28;20210;-79
2023/05/20 01:19:32;;;;;;;2.17;2.00;;;;;;;12.63;66.03;101621.13;4986981;28;20262;-79
2023/05/20 01:22:02;;;;;;;2.00;1.90;;;;;;;12.58;66.57;101618.53;4987837;28;20273;-79
2023/05/20 01:24:30;;;;;;;3.63;1.90;;;;;;;12.52;66.86;101608.97;4987201;28;20232;-79
2023/05/20 01:26:57;;;;;;;2.87;2.23;;;;;;;12.53;67.24;101599.38;4986841;28;20208;-79
2023/05/20 01:29:23;;;;;;;4.27;2.10;;;;;;;12.46;67.30;101595.06;4987109;28;20207;-78
2023/05/20 01:31:51;;;;;;;2.03;1.83;;;;;;;12.41;67.63;101591.63;4986864;28;20212;-79
2023/05/20 01:34:18;;;;;;;2.23;1.80;;;;;;;12.40;67.99;101577.66;4986955;28;20206;-79
2023/05/20 01:36:46;;;;;;;3.10;1.90;;;;;;;12.39;68.19;101578.53;4985602;28;20213;-79
2023/05/20 01:39:12;;;;;;;2.00;1.80;;;;;;;12.37;67.62;101572.44;4977085;28;20262;-78
2023/05/20 01:41:41;;;;;;;2.30;2.00;;;;;;;12.32;67.87;101556.75;4975606;28;20210;-79
2023/05/20 01:44:07;;;;;;;1.93;1.83;;;;;;;12.30;68.70;101560.28;4983773;28;20278;-79
2023/05/20 01:46:34;;;;;;;2.87;2.13;;;;;;;12.34;68.32;101540.19;4982643;28;20265;-79
2023/05/20 01:49:00;;;;;;;6.30;1.70;;;;;;;12.34;67.93;101546.28;4983419;28;20233;-79
2023/05/20 01:51:26;;;;;;;2.07;1.87;;;;;;;12.34;68.57;101543.66;4983861;28;20263;-79
2023/05/20 01:53:53;;;;;;;2.40;2.17;;;;;;;12.35;67.78;101547.13;4984041;28;20244;-79
2023/05/20 01:56:20;;;;;;;2.40;2.20;;;;;;;12.36;67.56;101552.38;4982336;28;20247;-79
2023/05/20 01:58:48;;;;;;;2.20;2.00;;;;;;;12.34;67.85;101564.59;4983792;28;20244;-79
2023/05/20 02:01:14;;;;;;;1.80;1.70;;;;;;;12.34;67.90;101556.75;4983565;28;20204;-79
2023/05/20 02:03:41;;;;;;;3.60;2.10;;;;;;;12.31;68.10;101560.28;4984122;28;20207;-79
2023/05/20 02:06:07;;;;;;;2.53;1.90;;;;;;;12.30;68.69;101553.28;4983631;28;20232;-79
2023/05/20 02:08:33;;;;;;;2.10;1.87;;;;;;;12.23;68.72;101556.84;4984354;28;20213;-79
2023/05/20 02:11:00;;;;;;;2.00;1.90;;;;;;;12.19;69.04;101539.44;4984772;28;20221;-79
2023/05/20 02:13:26;;;;;;;2.17;2.07;;;;;;;12.15;69.44;101535.09;4984912;28;20215;-79
2023/05/20 02:15:54;;;;;;;2.30;2.00;;;;;;;12.21;68.72;101523.69;4983749;28;20235;-79
2023/05/20 02:18:20;;;;;;;2.90;2.10;;;;;;;12.20;69.36;101529.81;4989479;28;20257;-78
2023/05/20 02:20:46;;;;;;;1.70;1.60;;;;;;;12.21;69.18;101527.19;4992559;28;20233;-78
2023/05/20 02:23:13;;;;;;;2.30;2.10;;;;;;;12.24;69.36;101527.16;4992839;28;20213;-78
2023/05/20 02:25:40;;;;;;;2.53;1.97;;;;;;;12.23;69.38;101522.81;4991915;28;20245;-78
2023/05/20 02:28:09;;;;;;;4.10;2.10;;;;;;;12.23;69.27;101527.16;4993097;28;20204;-78
2023/05/20 02:30:36;;;;;;;2.57;2.37;;;;;;;12.25;69.12;101525.41;4992955;28;20240;-78
2023/05/20 02:33:03;;;;;;;2.43;2.13;;;;;;;12.25;69.58;101520.16;4991932;28;20237;-78
2023/05/20 02:35:30;;;;;;;2.57;2.10;;;;;;;12.16;69.42;101518.50;4989799;28;20232;-78
2023/05/20 02:37:56;;;;;;;2.40;1.80;;;;;;;12.22;69.56;101521.06;4983201;28;20264;-78
2023/05/20 02:40:22;;;;;;;2.40;2.10;;;;;;;12.24;69.97;101513.22;4982652;28;20229;-78
2023/05/20 02:42:49;;;;;;;2.60;2.30;;;;;;;12.26;69.67;101509.69;4982650;28;20680;-78
2023/05/20 02:45:15;;;;;;;2.63;2.37;;;;;;;12.27;68.97;101519.28;4982791;28;20225;-79
2023/05/20 02:47:41;;;;;;;2.27;2.03;;;;;;;12.26;69.30;101520.16;4982493;28;20570;-79
2023/05/20 02:50:10;;;;;;;4.07;2.60;;;;;;;12.28;69.60;101522.78;4982590;28;20670;-79
2023/05/20 02:52:38;;;;;;;2.33;2.13;;;;;;;12.28;69.75;101521.00;4982251;28;20623;-78
2023/05/20 02:55:06;;;;;;;2.40;2.20;;;;;;;12.30;70.11;101526.25;4981591;28;20230;-78
2023/05/20 02:57:33;;;;;;;2.77;2.40;;;;;;;12.28;70.23;101517.53;4981579;28;20233;-78
2023/05/20 03:00:00;;;;;;;3.20;2.70;;;;;;;12.22;70.27;101505.34;4982396;28;20228;-78
2023/05/20 03:02:26;;;;;;;3.10;2.10;;;;;;;12.26;70.57;101493.97;4981320;28;20575;-78
2023/05/20 03:04:53;;;;;;;2.47;2.20;;;;;;;12.28;70.80;101497.44;4981546;28;20233;-78
2023/05/20 03:07:21;;;;;;;2.50;2.30;;;;;;;12.31;70.74;101501.81;4981499;28;20228;-78
2023/05/20 03:09:47;;;;;;;2.33;2.20;;;;;;;12.30;70.80;101503.53;4982081;28;20272;-79
2023/05/20 03:12:14;;;;;;;3.67;2.70;;;;;;;12.31;71.01;101494.81;4982054;28;20651;-79
2023/05/20 03:14:40;;;;;;;2.53;2.33;;;;;;;12.32;70.56;101496.53;4981365;28;20280;-79
2023/05/20 03:17:06;;;;;;;2.60;2.40;;;;;;;12.35;70.78;101495.66;4981113;28;20656;-78
2023/05/20 03:19:33;;;;;;;3.60;2.57;;;;;;;12.37;70.49;101490.38;4981119;28;20716;-78
2023/05/20 03:21:59;;;;;;;3.30;2.37;;;;;;;12.41;70.14;101499.97;4982737;28;20208;-79
2023/05/20 03:24:27;;;;;;;2.30;2.20;;;;;;;12.42;69.81;101505.19;4982670;28;20206;-79
2023/05/20 03:26:53;;;;;;;3.20;2.60;;;;;;;12.43;69.80;101520.03;4981035;28;20229;-79
2023/05/20 03:29:20;;;;;;;2.40;2.20;;;;;;;12.45;70.01;101522.63;4981570;28;20205;-78
2023/05/20 03:31:46;;;;;;;2.50;2.30;;;;;;;12.46;69.69;101524.34;4981365;28;20322;-78
2023/05/20 03:34:12;;;;;;;2.57;2.37;;;;;;;12.47;69.41;101520.88;4981596;28;20207;-78
2023/05/20 03:36:39;;;;;;;2.73;2.53;;;;;;;12.48;69.33;101528.69;4981404;28;20275;-78
2023/05/20 03:39:05;;;;;;;3.80;2.47;;;;;;;12.51;69.13;101531.28;4982071;28;20208;-78
2023/05/20 03:41:33;;;;;;;2.53;2.30;;;;;;;12.50;69.38;101537.41;4981413;28;20209;-78
2023/05/20 03:43:59;;;;;;;7.07;2.53;;;;;;;12.49;69.71;101542.66;4981260;28;20244;-78
2023/05/20 03:46:26;;;;;;;2.40;2.20;;;;;;;12.51;69.58;101543.53;4980910;28;20234;-78
2023/05/20 03:48:52;;;;;;;2.87;2.20;;;;;;;12.52;69.44;101542.63;4981827;28;20220;-79
2023/05/20 03:51:18;;;;;;;2.60;2.20;;;;;;;12.55;69.90;101549.56;4982493;28;20209;-78
2023/05/20 03:53:45;;;;;;;3.13;2.27;;;;;;;12.57;69.57;101547.84;4981174;28;20205;-79
2023/05/20 03:56:11;;;;;;;2.50;2.30;;;;;;;12.59;69.76;101559.16;4981459;28;20237;-78
2023/05/20 03:58:39;;;;;;;2.43;2.23;;;;;;;12.56;69.59;101559.19;4981382;28;20204;-78
2023/05/20 04:01:05;;;;;;;3.10;2.90;;;;;;;12.53;69.44;101554.84;4980879;28;20225;-78
2023/05/20 04:03:31;;;;;;;2.60;2.40;;;;;;;12.57;69.22;101553.09;4981470;28;20214;-78
2023/05/20 04:05:58;;;;;;;3.77;2.27;;;;;;;12.60;68.61;101566.13;4981035;28;20229;-79
2023/05/20 04:08:24;;;;;;;2.20;2.00;;;;;;;12.59;69.40;101562.66;4981467;28;20224;-79
2023/05/20 04:10:51;;;;;;;2.50;2.10;;;;;;;12.60;68.91;101564.38;4981797;28;20208;-78
2023/05/20 04:13:17;;;;;;;2.40;2.20;;;;;;;12.59;69.23;101567.03;4981382;28;20205;-78
2023/05/20 04:15:45;;;;;;;2.53;2.33;;;;;;;12.61;69.04;101563.50;4980302;28;20237;-78
2023/05/20 04:18:11;;;;;;;3.20;2.40;;;;;;;12.61;69.17;101563.50;4981875;28;20240;-78
2023/05/20 04:20:40;;;;;;;2.73;2.53;;;;;;;12.58;69.42;101560.03;4983391;28;20291;-79
2023/05/20 04:23:06;;;;;;;3.83;2.80;;;;;;;12.58;69.53;101563.53;4984707;28;20241;-79
2023/05/20 04:25:34;;;;;;;5.50;2.43;;;;;;;12.57;69.51;101555.69;4984813;28;20237;-79
2023/05/20 04:28:01;;;;;;;2.40;2.20;;;;;;;12.59;68.96;101556.56;4984709;28;20213;-78
2023/05/20 04:30:27;;;;;;;2.47;2.20;;;;;;;12.59;69.62;101549.56;4984704;28;20212;-78
2023/05/20 04:32:55;;;;;;;3.60;2.47;;;;;;;12.62;70.00;101548.66;4985171;28;20236;-79
2023/05/20 04:35:24;;;;;;;5.83;2.73;;;;;;;12.60;69.43;101550.41;4984690;28;20251;-79
2023/05/20 04:37:52;;;;;;;2.70;2.50;;;;;;;12.60;69.90;101547.78;4985296;28;20203;-78
2023/05/20 04:40:19;;;;;;;2.87;2.27;;;;;;;12.59;69.88;101544.31;4984562;28;20252;-78
2023/05/20 04:42:46;;;;;;;2.50;2.30;;;;;;;12.62;69.85;101535.56;4984718;28;20252;-78
2023/05/20 04:45:12;;;;;;;4.37;2.33;;;;;;;12.58;69.44;101545.19;4984113;28;20230;-79
2023/05/20 04:47:40;;;;;;;2.13;1.93;;;;;;;12.57;69.91;101540.00;4984565;28;20273;-79
2023/05/20 04:50:10;;;;;;;2.47;2.27;;;;;;;12.62;69.15;101546.03;4985406;28;20209;-78
2023/05/20 04:52:37;;;;;;;3.50;2.43;;;;;;;12.63;69.62;101547.78;4985295;28;20279;-79
2023/05/20 04:55:04;;;;;;;2.50;2.07;;;;;;;12.65;70.03;101552.13;4985498;28;20321;-78
2023/05/20 04:57:33;;;;;;;2.63;2.43;;;;;;;12.67;69.47;101552.09;4986242;28;20206;-79
2023/05/20 04:59:59;;;;;;;3.37;2.63;;;;;;;12.73;69.53;101552.03;4987238;28;20235;-79
2023/05/20 05:02:26;;;;;;;2.63;2.43;;;;;;;12.76;69.25;101546.75;4984779;28;20206;-79
2023/05/20 05:04:52;;;;;;;3.63;2.30;;;;;;;12.75;69.39;101555.50;4985550;28;20252;-78
2023/05/20 05:07:20;;;;;;;3.23;2.57;;;;;;;12.78;69.18;101555.47;4985504;28;20214;-78
2023/05/20 05:09:46;;;;;;;3.17;2.87;;;;;;;12.79;69.32;101562.47;4986180;28;20210;-79
2023/05/20 05:12:12;;;;;;;4.73;2.30;;;;;;;12.79;69.17;101565.06;4985825;28;20213;-79
2023/05/20 05:14:39;;;;;;;3.30;2.70;;;;;;;12.79;69.07;101565.06;4985089;28;20263;-79
2023/05/20 05:17:05;;;;;;;3.83;2.63;;;;;;;12.81;68.93;101570.31;4998292;23;20278;-79
2023/05/20 05:19:31;;;;;;;2.60;2.40;;;;;;;12.81;69.19;101567.69;4981015;28;20218;-79
2023/05/20 05:21:58;;;;;;;2.90;2.70;;;;;;;12.80;69.42;101569.41;4981503;28;20209;-79
2023/05/20 05:24:25;;;;;;;2.50;2.30;;;;;;;12.82;69.66;101569.41;4981929;28;20221;-80
2023/05/20 05:26:53;;;;;;;2.53;2.43;;;;;;;12.81;69.83;101560.69;4980744;28;20264;-79
2023/05/20 05:29:20;;;;;;;5.00;2.67;;;;;;;12.84;69.61;101557.16;4981869;28;20212;-80
2023/05/20 05:31:46;;;;;;;2.70;2.50;;;;;;;12.84;69.80;101557.16;4981132;28;20216;-80
2023/05/20 05:34:12;;;;;;;3.00;2.73;;;;;;;12.83;69.79;101545.81;4979981;28;20209;-80
2023/05/20 05:36:40;;;;;;;2.43;2.23;;;;;;;12.87;69.79;101549.28;4980785;28;20288;-79
2023/05/20 05:39:06;;;;;;;3.73;2.80;;;;;;;12.81;69.52;101549.34;4981723;28;20213;-79
2023/05/20 05:41:34;;;;;;;2.90;2.70;;;;;;;12.84;70.02;101549.31;4983194;28;20241;-80
2023/05/20 05:44:01;;;;;;;3.17;2.97;;;;;;;12.86;69.88;101544.91;4978494;28;20208;-78
2023/05/20 05:46:27;;;;;;;3.53;2.63;;;;;;;12.86;69.58;101548.41;4976511;28;20262;-78
2023/05/20 05:48:53;;;;;;;3.17;2.87;;;;;;;12.88;70.15;101551.91;4977099;28;20211;-79
2023/05/20 05:51:20;;;;;;;2.83;2.63;;;;;;;12.89;70.19;101537.03;4978422;28;20206;-80
2023/05/20 05:53:46;;;;;;;3.17;2.97;;;;;;;12.94;70.32;101527.34;4979428;28;20216;-78
2023/05/20 05:56:12;;;;;;;3.50;3.20;;;;;;;12.99;70.58;101524.69;4980672;28;20260;-80
2023/05/20 05:58:40;;;;;;;3.40;3.20;;;;;;;13.02;70.67;101520.28;4979199;28;20213;-80
2023/05/20 06:01:06;;;;;;;3.80;3.50;;;;;;;13.05;70.85;101520.25;4979365;28;20387;-79
2023/05/20 06:03:33;;;;;;;4.63;3.80;;;;;;;13.09;70.82;101515.84;4980687;28;20231;-79
2023/05/20 06:05:59;;;;;;;4.43;4.03;;;;;;;13.13;70.83;101500.94;4978407;28;20229;-79
2023/05/20 06:08:25;;;;;;;4.07;3.77;;;;;;;13.13;71.05;101507.03;4978612;28;20224;-79
2023/05/20 06:10:52;;;;;;;4.50;4.10;;;;;;;13.16;70.71;101506.13;4978902;28;20206;-79
2023/05/20 06:13:18;;;;;;;4.17;3.77;;;;;;;13.18;70.77;101512.22;4978247;28;20214;-80
2023/05/20 06:15:46;;;;;;;6.47;4.00;;;;;;;13.22;71.33;101504.31;4979728;28;20296;-80
2023/05/20 06:18:12;;;;;;;4.93;4.40;;;;;;;13.26;71.42;101512.97;4978819;28;20225;-80
2023/05/20 06:20:38;;;;;;;4.53;4.13;;;;;;;13.29;70.86;101507.72;4978692;28;20269;-80
2023/05/20 06:23:05;;;;;;;4.10;3.70;;;;;;;13.31;70.77;101505.97;4978338;28;20245;-79
2023/05/20 06:25:31;;;;;;;4.47;4.17;;;;;;;13.33;70.75;101503.34;4979014;28;20724;-79
2023/05/20 06:27:57;;;;;;;4.77;4.40;;;;;;;13.35;70.86;101507.66;4978508;28;20214;-80
2023/05/20 06:30:24;;;;;;;4.13;3.83;;;;;;;13.38;71.51;101518.13;4978539;28;20211;-79
2023/05/20 06:32:51;;;;;;;4.37;4.07;;;;;;;13.37;71.53;101492.78;4975401;28;20882;-80
2023/05/20 06:35:18;;;;;;;5.07;4.67;;;;;;;13.45;71.66;101492.66;4977928;28;20211;-79
2023/05/20 06:37:44;;;;;;;4.00;3.67;;;;;;;13.51;71.32;101496.06;4978049;28;20208;-79
2023/05/20 06:40:12;;;;;;;4.17;3.87;;;;;;;13.54;70.67;101492.56;4977741;28;20221;-80
2023/05/20 06:42:38;;;;;;;4.17;3.77;;;;;;;13.55;70.91;101504.75;4977198;28;20692;-79
2023/05/20 06:45:05;;;;;;;5.30;4.47;;;;;;;13.57;70.48;101516.09;4980316;28;20213;-79
2023/05/20 06:47:32;;;;;;;4.40;4.00;;;;;;;13.60;70.85;101510.81;4978232;28;20216;-79
2023/05/20 06:49:59;;;;;;;4.47;3.87;;;;;;;13.61;70.27;101516.94;4978651;28;20210;-80
2023/05/20 06:52:25;;;;;;;4.23;3.93;;;;;;;13.60;70.83;101510.81;4977672;28;20211;-78
2023/05/20 06:54:52;;;;;;;4.70;4.30;;;;;;;13.63;71.09;101500.28;4977821;28;20242;-80
2023/05/20 06:57:18;;;;;;;4.30;3.90;;;;;;;13.64;71.18;101498.53;4979048;28;20238;-80
2023/05/20 06:59:45;;;;;;;5.10;4.60;;;;;;;13.68;70.61;101505.47;4980908;28;20831;-80
2023/05/20 07:02:11;;;;;;;4.50;4.10;;;;;;;13.69;70.56;101513.28;4977785;28;20284;-80
2023/05/20 07:04:37;;;;;;;5.17;4.70;;;;;;;13.67;71.04;101501.97;4978601;28;20237;-80
2023/05/20 07:07:05;;;;;;;12.93;5.40;;;;;;;13.67;71.29;101498.47;4978317;28;20312;-81
2023/05/20 07:09:32;;;;;;;4.70;4.40;;;;;;;13.70;71.29;101477.44;4980134;28;20231;-81
2023/05/20 07:11:58;;;;;;;5.43;4.93;;;;;;;13.69;71.25;101473.06;4979449;28;20211;-80
2023/05/20 07:14:24;;;;;;;5.40;5.00;;;;;;;13.64;71.46;101472.31;4979467;28;20208;-81
2023/05/20 07:16:51;;;;;;;6.40;5.90;;;;;;;13.57;71.54;101466.25;4978381;28;20238;-80
2023/05/20 07:19:17;;;;;;;5.30;4.83;;;;;;;13.59;71.53;101474.97;4979372;28;20241;-81
2023/05/20 07:21:43;;;;;;;5.30;4.87;;;;;;;13.61;71.75;101467.94;4979264;28;20233;-81
2023/05/20 07:24:11;;;;;;;5.30;4.80;;;;;;;13.66;71.81;101465.28;4979240;28;20206;-82
2023/05/20 07:26:37;;;;;;;5.07;4.57;;;;;;;13.65;72.12;101464.38;4978912;28;20233;-81
2023/05/20 07:29:04;;;;;;;5.80;4.27;;;;;;;13.64;72.30;101451.31;4979725;28;20211;-81
2023/05/20 07:31:31;;;;;;;4.73;4.43;;;;;;;13.73;71.76;101455.53;4979134;28;20215;-83
2023/05/20 07:33:57;;;;;;;5.50;5.00;;;;;;;13.76;71.33;101455.50;4978964;28;20289;-80
2023/05/20 07:36:23;;;;;;;5.90;4.60;;;;;;;13.87;71.68;101454.44;4977107;28;20234;-81
2023/05/20 07:38:50;;;;;;;4.57;4.17;;;;;;;13.96;72.16;101456.03;4975178;28;20233;-80
2023/05/20 07:41:18;;;;;;;5.13;4.63;;;;;;;14.06;71.76;101459.38;4977273;28;20288;-80
2023/05/20 07:43:45;;;;;;;5.33;4.93;;;;;;;14.09;71.42;101460.19;4978129;28;20240;-80
2023/05/20 07:46:12;;;;;;;5.20;4.80;;;;;;;14.24;71.66;101469.56;4977409;28;20254;-81
2023/05/20 07:48:38;;;;;;;4.70;4.30;;;;;;;14.33;71.34;101471.16;4977916;28;20218;-80
2023/05/20 07:51:05;;;;;;;5.00;4.60;;;;;;;14.47;71.30;101484.06;4977261;28;20237;-80
2023/05/20 07:53:32;;;;;;;5.13;4.73;;;;;;;14.57;70.62;101484.75;4978031;28;20697;-82
2023/05/20 07:55:58;;;;;;;5.30;4.90;;;;;;;14.66;70.34;101498.59;4980026;28;20293;-80
2023/05/20 07:58:27;;;;;;;6.20;5.70;;;;;;;14.74;70.12;101505.47;4982102;28;20233;-79
2023/05/20 08:00:53;;;;;;;6.20;5.63;;;;;;;14.69;69.91;101516.94;4981581;28;20231;-79
2023/05/20 08:03:21;;;;;;;5.97;5.43;;;;;;;14.77;70.16;101518.56;4981376;28;20235;-80
2023/05/20 08:05:47;;;;;;;5.90;5.50;;;;;;;14.83;70.58;101508.78;4980777;28;20228;-79
2023/05/20 08:08:13;;;;;;;5.80;5.40;;;;;;;14.89;70.07;101515.69;4980995;28;20211;-79
2023/05/20 08:10:40;;;;;;;6.10;5.63;;;;;;;14.91;70.12;101524.41;4980506;28;20219;-80
2023/05/20 08:13:06;;;;;;;6.27;5.57;;;;;;;14.95;70.41;101509.47;4981580;28;20211;-79
2023/05/20 08:15:35;;;;;;;6.87;6.37;;;;;;;14.94;70.47;101520.84;4981556;28;20267;-80
2023/05/20 08:18:01;;;;;;;6.67;6.10;;;;;;;14.89;69.52;101526.22;4981955;28;20603;-80
2023/05/20 08:20:28;;;;;;;7.03;6.43;;;;;;;14.83;69.49;101534.22;4982228;28;20212;-80
2023/05/20 08:22:55;;;;;;;6.97;6.47;;;;;;;14.83;69.61;101537.72;4981261;28;20681;-80
2023/05/20 08:25:22;;;;;;;8.00;7.40;;;;;;;14.80;69.47;101529.88;4980718;28;20211;-79
2023/05/20 08:27:48;;;;;;;7.90;7.30;;;;;;;14.82;69.34;101538.59;4981206;28;20223;-80
2023/05/20 08:30:15;;;;;;;7.83;7.27;;;;;;;14.82;69.24;101550.88;4981468;28;20218;-79
2023/05/20 08:32:42;;;;;;;7.10;6.60;;;;;;;14.82;69.72;101548.25;4981253;28;20211;-79
2023/05/20 08:35:10;;;;;;;6.80;6.30;;;;;;;14.81;69.93;101542.13;4979988;28;20211;-79
2023/05/20 08:37:36;;;;;;;8.63;7.93;;;;;;;14.83;69.97;101528.97;4980772;28;20215;-79
2023/05/20 08:40:04;;;;;;;7.57;7.00;;;;;;;14.85;70.22;101522.78;4981313;28;20222;-79
2023/05/20 08:42:30;;;;;;;7.97;7.47;;;;;;;14.88;69.47;101529.72;4981243;28;20234;-79
2023/05/20 08:44:59;;;;;;;7.50;6.90;;;;;;;14.92;69.61;101531.41;4981766;28;20215;-80
2023/05/20 08:47:26;;;;;;;8.40;7.80;;;;;;;14.95;70.00;101518.19;4980587;28;20662;-79
2023/05/20 08:49:54;;;;;;;6.70;6.20;;;;;;;15.00;69.82;101515.47;4980978;28;20211;-79
2023/05/20 08:52:22;;;;;;;7.97;7.20;;;;;;;15.06;69.87;101518.88;4980988;28;20245;-80
2023/05/20 08:54:50;;;;;;;6.97;6.47;;;;;;;15.16;70.15;101510.75;4981176;28;20261;-79
2023/05/20 08:57:19;;;;;;;7.23;6.63;;;;;;;15.22;69.43;101515.91;4980417;28;20250;-80
2023/05/20 08:59:46;;;;;;;7.30;6.70;;;;;;;15.22;69.23;101519.41;4980748;28;20218;-80
2023/05/20 09:02:13;;;;;;;7.43;6.73;;;;;;;15.29;69.09;101525.41;4980932;28;20238;-79
2023/05/20 09:04:39;;;;;;;6.83;6.33;;;;;;;15.31;68.66;101533.28;4980118;28;20282;-80
2023/05/20 09:07:07;;;;;;;7.47;6.97;;;;;;;15.23;68.37;101542.16;4979159;28;20266;-80
2023/05/20 09:09:35;;;;;;;7.37;6.80;;;;;;;15.23;68.51;101544.81;4979848;28;20266;-79
2023/05/20 09:12:02;;;;;;;6.90;6.40;;;;;;;15.23;68.70;101543.94;4980601;28;20210;-80
2023/05/20 09:14:28;;;;;;;10.13;6.40;;;;;;;15.23;69.09;101546.56;4980284;28;20203;-80
2023/05/20 09:16:55;;;;;;;6.90;6.40;;;;;;;15.28;69.44;101539.44;4979976;28;20239;-80
2023/05/20 09:19:22;;;;;;;7.17;5.47;;;;;;;15.43;68.63;101544.38;4980266;28;20215;-80
2023/05/20 09:21:49;;;;;;;6.40;5.90;;;;;;;15.57;68.45;101559.03;4980766;28;20241;-81
2023/05/20 09:24:20;;;;;;;6.00;5.60;;;;;;;15.69;67.41;101551.69;4981027;28;20217;-81
2023/05/20 09:26:46;;;;;;;6.03;5.53;;;;;;;15.81;66.43;101573.44;4979898;28;20790;-81
2023/05/20 09:29:13;;;;;;;5.50;5.00;;;;;;;15.93;66.79;101590.72;4980346;28;20274;-82
2023/05/20 09:31:40;;;;;;;5.20;4.80;;;;;;;16.06;65.79;101603.56;4979038;28;20244;-81
2023/05/20 09:34:06;;;;;;;5.73;5.33;;;;;;;16.20;65.28;101626.97;4980095;28;20674;-81
2023/05/20 09:36:35;;;;;;;5.00;4.60;;;;;;;16.29;65.16;101644.31;4980546;28;20658;-82
2023/05/20 09:39:04;;;;;;;4.67;4.27;;;;;;;16.37;64.92;101652.94;4981678;28;20211;-81
2023/05/20 09:41:34;;;;;;;5.10;4.73;;;;;;;16.44;63.63;101664.19;4981799;28;20230;-81
2023/05/20 09:44:00;;;;;;;4.37;4.07;;;;;;;16.36;63.77;101706.53;4982190;28;20302;-81
2023/05/20 09:46:27;;;;;;;4.40;4.00;;;;;;;16.48;63.89;101695.69;4981325;28;20225;-82
2023/05/20 09:48:54;;;;;;;4.47;4.10;;;;;;;16.46;63.83;101709.81;4980377;28;20270;-80
2023/05/20 09:51:23;;;;;;;8.20;5.23;;;;;;;16.53;62.76;101719.34;4980394;28;20227;-81
2023/05/20 09:53:51;;;;;;;5.00;4.60;;;;;;;16.58;62.31;101740.31;4979432;28;20215;-82
2023/05/20 09:56:20;;;;;;;4.60;4.30;;;;;;;16.60;62.63;101743.75;4981041;28;20232;-81
2023/05/20 09:58:49;;;;;;;4.63;4.23;;;;;;;16.68;63.50;101734.75;4981878;28;20239;-81
2023/05/20 10:01:16;;;;;;;4.97;4.57;;;;;;;16.66;62.50;101749.75;4981515;28;20752;-81
2023/05/20 10:03:42;;;;;;;4.27;3.97;;;;;;;16.64;61.97;101758.59;4980968;28;20667;-78
2023/05/20 10:06:28;;;;;;;4.13;3.83;;;;;;;16.71;62.53;101751.41;4979734;28;20273;-79
2023/05/20 10:09:10;;;;;;;4.63;4.10;;;;;;;16.82;62.58;101737.09;4979485;28;20254;-79
2023/05/20 10:11:46;;;;;;;4.67;4.13;;;;;;;16.82;62.24;101737.09;4979004;28;20210;-78
2023/05/20 10:14:28;;;;;;;4.97;4.00;;;;;;;16.82;62.53;101737.09;4979436;28;20231;-80
2023/05/20 10:17:06;;;;;;;3.53;3.33;;;;;;;16.84;62.69;101735.28;4978173;28;20228;-78
2023/05/20 10:19:33;;;;;;;4.80;4.40;;;;;;;16.82;62.15;101731.81;4978125;28;20214;-78
2023/05/20 10:22:01;;;;;;;4.40;4.10;;;;;;;16.78;62.09;101740.69;4978932;28;20259;-81
2023/05/20 10:24:32;;;;;;;4.60;4.20;;;;;;;16.77;62.08;101732.81;4978665;28;20208;-81
2023/05/20 10:27:01;;;;;;;4.77;4.37;;;;;;;16.72;62.69;101735.56;4978171;28;20625;-81
2023/05/20 10:29:29;;;;;;;4.23;3.93;;;;;;;16.69;62.14;101730.38;4978791;28;20208;-80
2023/05/20 10:31:56;;;;;;;4.00;3.70;;;;;;;16.73;62.87;101710.06;4978846;28;20236;-81
2023/05/20 10:34:23;;;;;;;4.70;4.40;;;;;;;16.84;62.51;101716.84;4978411;28;20223;-81
2023/05/20 10:36:58;;;;;;;4.60;4.20;;;;;;;16.93;63.05;101709.63;4978110;28;20238;-81
2023/05/20 10:39:27;;;;;;;4.43;4.03;;;;;;;17.02;62.96;101685.63;4977917;28;20207;-80
2023/05/20 10:41:53;;;;;;;4.60;4.27;;;;;;;17.11;62.09;101703.88;4977958;28;20234;-82
2023/05/20 10:44:19;;;;;;;3.97;3.67;;;;;;;17.14;61.96;101713.47;4978107;28;20239;-81
2023/05/20 10:47:01;;;;;;;3.87;3.57;;;;;;;17.10;61.55;101732.94;4977936;28;20631;-81
2023/05/20 10:49:33;;;;;;;3.73;3.53;;;;;;;17.11;62.09;101721.47;4977528;28;20246;-82
2023/05/20 10:52:01;;;;;;;4.00;3.70;;;;;;;17.13;61.99;101715.25;4978152;28;20217;-80
2023/05/20 10:54:28;;;;;;;4.93;4.50;;;;;;;17.06;61.47;101722.44;4977687;28;20226;-82
2023/05/20 10:56:56;;;;;;;4.13;3.83;;;;;;;17.03;61.66;101726.94;4977632;28;20224;-81
2023/05/20 10:59:22;;;;;;;4.30;3.90;;;;;;;17.06;61.57;101711.88;4978078;28;20211;-81
2023/05/20 11:01:50;;;;;;;4.07;3.77;;;;;;;17.10;61.23;101722.38;4977660;28;20290;-82
2023/05/20 11:04:18;;;;;;;4.20;3.80;;;;;;;17.05;61.08;101720.72;4978054;28;20246;-80
2023/05/20 11:06:50;;;;;;;4.03;3.67;;;;;;;17.07;61.21;101733.88;4978177;28;20235;-81
2023/05/20 11:09:16;;;;;;;4.10;3.80;;;;;;;17.09;61.66;101724.16;4978697;28;20212;-80
2023/05/20 11:11:43;;;;;;;4.20;3.90;;;;;;;17.06;61.96;101716.31;4978119;28;20211;-81
2023/05/20 11:14:12;;;;;;;4.00;3.70;;;;;;;17.10;62.30;101710.03;4978080;28;20211;-81
2023/05/20 11:16:38;;;;;;;4.27;3.97;;;;;;;17.06;61.49;101703.97;4995397;23;20250;-78
2023/05/20 11:19:08;;;;;;;4.40;4.10;;;;;;;17.02;61.58;101704.97;4979681;28;20215;-78
2023/05/20 11:21:34;;;;;;;4.53;4.23;;;;;;;17.02;61.29;101701.47;4979270;28;20229;-77
2023/05/20 11:24:01;;;;;;;4.10;3.80;;;;;;;16.87;62.13;101700.09;4979422;28;20217;-78